Time;durP1;ratioP1;P1;durP2;ratioP2;P2;SDS_P1;SDS_P2;PMS_P1;PMS_P2;Temp;Humidity;BMP_temperature;BMP_pressure;BME280_temperature;BME280_humidity;BME280_pressure;Samples;Min_cycle;Max_cycle;Signal;HPM_P1;HPM_P2
2021/09/05 00:00:49;;;;;;;5.25;0.82;;;14.30;79.40;;;;;;5030789;28;20024;-69
2021/09/05 00:03:15;;;;;;;3.60;1.38;;;14.40;79.70;;;;;;5028056;28;20405;-67
2021/09/05 00:05:42;;;;;;;2.25;0.75;;;14.40;79.70;;;;;;5032003;28;21659;-67
2021/09/05 00:08:08;;;;;;;5.30;1.63;;;14.30;79.50;;;;;;5026707;28;20028;-67
2021/09/05 00:10:35;;;;;;;2.67;0.70;;;14.30;79.90;;;;;;5030578;28;20017;-70
2021/09/05 00:13:02;;;;;;;4.57;1.50;;;14.30;79.90;;;;;;5026878;28;20093;-75
2021/09/05 00:15:28;;;;;;;2.28;0.98;;;14.30;80.00;;;;;;5029118;28;20381;-68
2021/09/05 00:17:55;;;;;;;3.28;1.25;;;14.30;80.10;;;;;;5029001;28;20041;-68
2021/09/05 00:20:21;;;;;;;7.68;1.10;;;14.30;80.50;;;;;;5030226;28;20384;-73
2021/09/05 00:22:48;;;;;;;3.65;1.10;;;14.30;80.60;;;;;;5030072;28;20443;-70
2021/09/05 00:25:14;;;;;;;2.90;1.13;;;14.30;80.90;;;;;;5029080;28;20495;-70
2021/09/05 00:27:41;;;;;;;3.85;1.20;;;14.30;80.70;;;;;;5027800;28;20021;-78
2021/09/05 00:30:08;;;;;;;5.82;1.35;;;14.30;80.50;;;;;;5024140;28;20021;-77
2021/09/05 00:32:35;;;;;;;4.57;1.05;;;14.40;80.40;;;;;;5032524;28;20120;-67
2021/09/05 00:35:01;;;;;;;7.63;1.17;;;14.40;80.70;;;;;;5029352;28;20028;-69
2021/09/05 00:37:28;;;;;;;4.45;1.25;;;14.40;80.90;;;;;;5024156;28;20388;-68
2021/09/05 00:39:54;;;;;;;6.28;1.52;;;14.40;80.80;;;;;;5027164;28;20029;-76
2021/09/05 00:42:22;;;;;;;4.75;0.82;;;14.40;80.80;;;;;;5026991;28;20040;-65
2021/09/05 00:44:49;;;;;;;4.53;0.98;;;14.40;81.20;;;;;;5031895;28;20017;-68
2021/09/05 00:47:15;;;;;;;5.47;1.67;;;14.40;81.70;;;;;;5027431;28;20037;-66
2021/09/05 00:49:42;;;;;;;5.93;1.38;;;14.40;82.30;;;;;;5027577;28;20048;-66
2021/09/05 00:52:10;;;;;;;3.63;1.73;;;14.40;82.60;;;;;;5027890;28;20405;-67
2021/09/05 00:54:41;;;;;;;1.83;0.80;;;14.40;83.60;;;;;;5025907;28;20013;-66
2021/09/05 00:57:13;;;;;;;5.57;1.13;;;14.40;83.20;;;;;;5024794;28;20386;-66
2021/09/05 00:59:42;;;;;;;5.90;1.17;;;14.30;83.30;;;;;;5029092;28;20030;-67
2021/09/05 01:02:09;;;;;;;4.65;1.17;;;14.30;83.20;;;;;;5030897;28;20005;-67
2021/09/05 01:04:36;;;;;;;2.03;1.10;;;14.30;83.40;;;;;;5026509;28;20093;-66
2021/09/05 01:07:03;;;;;;;3.13;1.00;;;14.30;83.70;;;;;;5025623;28;20346;-67
2021/09/05 01:09:30;;;;;;;3.72;0.80;;;14.20;83.80;;;;;;5027960;28;20018;-67
2021/09/05 01:11:59;;;;;;;3.28;0.88;;;14.20;83.90;;;;;;5028648;28;20045;-67
2021/09/05 01:14:26;;;;;;;7.95;1.63;;;14.20;84.20;;;;;;5025576;28;20014;-66
2021/09/05 01:16:53;;;;;;;4.57;1.75;;;14.10;84.30;;;;;;5024323;28;20021;-66
2021/09/05 01:19:22;;;;;;;1.88;0.75;;;14.20;84.50;;;;;;5027757;28;20014;-67
2021/09/05 01:21:51;;;;;;;4.80;1.23;;;14.20;84.50;;;;;;5028577;28;20013;-66
2021/09/05 01:24:20;;;;;;;3.65;1.70;;;14.10;84.40;;;;;;5025946;28;20020;-67
2021/09/05 01:26:50;;;;;;;1.38;0.73;;;14.10;84.70;;;;;;5028002;28;20025;-76
2021/09/05 01:29:18;;;;;;;3.50;1.60;;;14.10;84.70;;;;;;5028522;28;20013;-67
2021/09/05 01:31:51;;;;;;;4.88;1.00;;;14.10;84.70;;;;;;5029962;28;20175;-67
2021/09/05 01:34:20;;;;;;;4.60;1.15;;;14.10;84.70;;;;;;5028911;28;20017;-67
2021/09/05 01:36:47;;;;;;;5.15;0.82;;;14.10;84.60;;;;;;5026434;28;20021;-70
2021/09/05 01:39:16;;;;;;;2.63;0.70;;;14.10;84.60;;;;;;5026444;28;20026;-71
2021/09/05 01:41:44;;;;;;;5.03;1.10;;;14.10;84.80;;;;;;5027396;28;20108;-68
2021/09/05 01:44:22;;;;;;;3.47;0.90;;;14.20;84.70;;;;;;5023322;28;20043;-75
2021/09/05 01:46:49;;;;;;;2.75;0.98;;;14.20;84.60;;;;;;5029284;28;20547;-66
2021/09/05 01:49:16;;;;;;;3.47;0.93;;;14.20;84.70;;;;;;5028984;28;20014;-66
2021/09/05 01:51:43;;;;;;;4.65;1.10;;;14.20;84.80;;;;;;5027236;28;20112;-70
2021/09/05 01:54:10;;;;;;;2.50;0.90;;;14.20;84.80;;;;;;5027184;28;20532;-68
2021/09/05 01:56:36;;;;;;;5.57;1.38;;;14.20;84.50;;;;;;5029808;28;20042;-75
2021/09/05 01:59:05;;;;;;;1.52;1.00;;;14.20;84.80;;;;;;5025508;28;20033;-67
2021/09/05 02:01:32;;;;;;;5.43;1.00;;;14.20;84.50;;;;;;5025833;28;20014;-71
2021/09/05 02:04:00;;;;;;;5.10;1.10;;;14.20;84.60;;;;;;5026106;28;20022;-69
2021/09/05 02:06:27;;;;;;;6.20;1.83;;;14.20;84.60;;;;;;5029540;28;20346;-71
2021/09/05 02:08:55;;;;;;;2.47;1.50;;;14.20;84.70;;;;;;5027557;28;20966;-71
2021/09/05 02:11:22;;;;;;;3.33;0.70;;;14.20;84.70;;;;;;5028791;28;20023;-67
2021/09/05 02:13:49;;;;;;;4.35;1.13;;;14.20;84.70;;;;;;5025853;28;20366;-76
2021/09/05 02:16:16;;;;;;;5.82;1.02;;;14.20;84.60;;;;;;5024928;28;20084;-75
2021/09/05 02:18:44;;;;;;;5.25;0.90;;;14.20;84.60;;;;;;5028996;28;20033;-67
2021/09/05 02:21:11;;;;;;;4.93;1.65;;;14.20;84.80;;;;;;5027928;28;20105;-67
2021/09/05 02:23:37;;;;;;;1.83;1.48;;;14.10;84.90;;;;;;5028135;28;20414;-72
2021/09/05 02:26:04;;;;;;;118.10;90.70;;;14.20;85.10;;;;;;5021290;28;20076;-68
2021/09/05 02:28:30;;;;;;;26.05;20.08;;;14.20;85.40;;;;;;5023444;28;20112;-67
2021/09/05 02:30:57;;;;;;;3.95;1.52;;;14.20;85.20;;;;;;5029551;28;20373;-71
2021/09/05 02:33:23;;;;;;;6.35;1.23;;;14.20;85.20;;;;;;5031043;28;20100;-70
2021/09/05 02:35:50;;;;;;;3.72;1.10;;;14.30;85.30;;;;;;5024147;28;20404;-71
2021/09/05 02:38:16;;;;;;;2.25;1.88;;;14.20;85.10;;;;;;5029395;28;20061;-76
2021/09/05 02:40:43;;;;;;;3.63;0.80;;;14.30;85.20;;;;;;5034432;28;20025;-67
2021/09/05 02:43:09;;;;;;;3.55;1.02;;;14.20;85.20;;;;;;5025537;28;20056;-76
2021/09/05 02:45:36;;;;;;;3.65;0.95;;;14.20;85.10;;;;;;5027370;28;20029;-71
2021/09/05 02:48:04;;;;;;;2.78;0.65;;;14.20;85.20;;;;;;5032160;28;20028;-72
2021/09/05 02:50:30;;;;;;;4.68;0.60;;;14.30;85.40;;;;;;5032439;28;20032;-69
2021/09/05 02:52:58;;;;;;;3.47;0.80;;;14.30;85.30;;;;;;5026996;28;20067;-75
2021/09/05 02:55:25;;;;;;;3.97;0.77;;;14.30;85.30;;;;;;5030859;28;20571;-67
2021/09/05 02:57:51;;;;;;;5.43;2.05;;;14.30;85.20;;;;;;5029775;28;20025;-70
2021/09/05 03:00:18;;;;;;;2.78;0.77;;;14.20;85.30;;;;;;5027008;28;20110;-68
2021/09/05 03:02:44;;;;;;;3.75;0.85;;;14.20;85.60;;;;;;5029168;28;20487;-68
2021/09/05 03:05:11;;;;;;;4.13;1.33;;;14.20;85.40;;;;;;5024183;28;20038;-67
2021/09/05 03:07:37;;;;;;;3.63;0.90;;;14.20;85.70;;;;;;5031715;28;20022;-72
2021/09/05 03:10:04;;;;;;;3.95;0.70;;;14.20;85.90;;;;;;5031311;28;20111;-75
2021/09/05 03:12:31;;;;;;;5.53;1.15;;;14.20;85.90;;;;;;5026510;28;20030;-66
2021/09/05 03:14:57;;;;;;;5.63;1.30;;;14.20;85.80;;;;;;5034031;28;20083;-74
2021/09/05 03:17:24;;;;;;;4.47;1.20;;;14.20;85.70;;;;;;5024585;28;20040;-73
2021/09/05 03:19:50;;;;;;;2.72;1.00;;;14.20;85.90;;;;;;5030571;28;20021;-74
2021/09/05 03:22:17;;;;;;;27.70;21.38;;;14.20;85.80;;;;;;5026334;28;20486;-67
2021/09/05 03:24:43;;;;;;;28.38;21.20;;;14.20;86.00;;;;;;5034950;28;20424;-67
2021/09/05 03:27:10;;;;;;;6.05;3.75;;;14.20;86.10;;;;;;5027539;28;20033;-67
2021/09/05 03:29:36;;;;;;;4.82;1.85;;;14.20;85.90;;;;;;5032561;28;20026;-66
2021/09/05 03:32:03;;;;;;;3.60;0.85;;;14.20;85.50;;;;;;5031312;28;20014;-71
2021/09/05 03:34:30;;;;;;;7.00;1.08;;;14.20;85.50;;;;;;5028129;28;20367;-74
2021/09/05 03:36:56;;;;;;;2.95;1.23;;;14.20;85.50;;;;;;5031373;28;20621;-66
2021/09/05 03:39:23;;;;;;;5.28;1.10;;;14.10;85.40;;;;;;5032450;28;20500;-66
2021/09/05 03:41:49;;;;;;;1.58;0.80;;;14.10;85.20;;;;;;5029728;28;20025;-68
2021/09/05 03:44:16;;;;;;;6.35;1.38;;;14.10;85.30;;;;;;5031961;28;20483;-66
2021/09/05 03:46:42;;;;;;;6.00;1.63;;;14.10;85.50;;;;;;5034816;28;20100;-68
2021/09/05 03:49:09;;;;;;;3.03;1.35;;;14.00;85.50;;;;;;5026937;28;20029;-67
2021/09/05 03:51:36;;;;;;;3.83;1.10;;;14.00;85.70;;;;;;5029743;28;20069;-71
2021/09/05 03:54:02;;;;;;;53.72;36.05;;;14.00;85.80;;;;;;5029370;28;20060;-74
2021/09/05 03:56:29;;;;;;;45.13;34.97;;;14.00;86.10;;;;;;5029809;28;20133;-66
2021/09/05 03:58:55;;;;;;;14.07;8.90;;;14.00;86.50;;;;;;5032154;28;20038;-72
2021/09/05 04:01:22;;;;;;;2.83;1.40;;;14.00;86.70;;;;;;5030238;28;20028;-69
2021/09/05 04:03:48;;;;;;;4.80;1.15;;;14.00;86.60;;;;;;5032596;28;20025;-67
2021/09/05 04:06:15;;;;;;;2.92;1.50;;;14.00;86.60;;;;;;5029156;28;20021;-69
2021/09/05 04:08:42;;;;;;;7.20;1.50;;;14.00;86.60;;;;;;5034203;28;20500;-72
2021/09/05 04:11:09;;;;;;;5.18;0.93;;;14.00;86.80;;;;;;5029593;28;20021;-75
2021/09/05 04:13:35;;;;;;;5.05;1.67;;;14.00;87.00;;;;;;5029558;28;20395;-75
2021/09/05 04:16:02;;;;;;;5.07;1.48;;;14.00;86.80;;;;;;5031050;28;20038;-68
2021/09/05 04:18:29;;;;;;;3.50;0.95;;;14.00;87.00;;;;;;5031568;28;20479;-71
2021/09/05 04:20:55;;;;;;;3.88;0.80;;;13.90;87.00;;;;;;5032202;28;20033;-74
2021/09/05 04:23:22;;;;;;;24.90;17.17;;;13.90;87.30;;;;;;5029963;28;20038;-67
2021/09/05 04:25:48;;;;;;;44.42;33.22;;;13.90;87.30;;;;;;5030226;28;20435;-66
2021/09/05 04:28:15;;;;;;;7.88;4.25;;;14.00;87.20;;;;;;5028719;28;20033;-69
2021/09/05 04:30:41;;;;;;;5.63;1.45;;;14.00;87.90;;;;;;5027106;28;20018;-66
2021/09/05 04:33:08;;;;;;;4.85;1.98;;;14.00;87.30;;;;;;5025689;28;20495;-72
2021/09/05 04:35:35;;;;;;;1.77;0.63;;;14.00;87.40;;;;;;5029126;28;20018;-69
2021/09/05 04:38:01;;;;;;;3.25;1.20;;;14.00;87.40;;;;;;5030619;28;20128;-71
2021/09/05 04:40:28;;;;;;;5.68;2.10;;;14.00;87.20;;;;;;5026738;28;20037;-71
2021/09/05 04:42:55;;;;;;;4.07;1.20;;;14.00;87.40;;;;;;5032599;28;20018;-67
2021/09/05 04:45:21;;;;;;;3.15;0.90;;;14.00;87.50;;;;;;5027748;28;20025;-67
2021/09/05 04:47:48;;;;;;;3.33;1.42;;;14.00;87.70;;;;;;5030944;28;20392;-66
2021/09/05 04:50:14;;;;;;;2.85;1.20;;;14.00;87.90;;;;;;5025880;28;20144;-68
2021/09/05 04:52:41;;;;;;;3.03;1.23;;;14.00;88.00;;;;;;5030187;28;20037;-67
2021/09/05 04:55:07;;;;;;;3.17;0.82;;;14.00;88.20;;;;;;5026782;28;20615;-67
2021/09/05 04:57:34;;;;;;;5.30;0.90;;;14.00;88.20;;;;;;5026028;28;20042;-70
2021/09/05 05:00:00;;;;;;;5.72;0.80;;;14.00;88.30;;;;;;5029451;28;20164;-66
2021/09/05 05:02:27;;;;;;;7.97;1.23;;;14.00;88.40;;;;;;5029346;28;20669;-66
2021/09/05 05:04:53;;;;;;;4.95;1.35;;;14.10;88.40;;;;;;5028912;28;20022;-68
2021/09/05 05:07:20;;;;;;;2.15;0.77;;;14.10;88.40;;;;;;5028236;28;20132;-67
2021/09/05 05:09:46;;;;;;;1.83;0.82;;;14.00;88.60;;;;;;5031144;28;20025;-72
2021/09/05 05:12:13;;;;;;;2.50;0.70;;;14.00;88.90;;;;;;5025436;28;20156;-69
2021/09/05 05:14:40;;;;;;;77.50;62.40;;;14.00;89.00;;;;;;5029019;28;20384;-69
2021/09/05 05:17:07;;;;;;;93.50;74.30;;;14.00;89.10;;;;;;5025851;28;20369;-70
2021/09/05 05:19:33;;;;;;;16.02;7.45;;;14.00;89.10;;;;;;5029894;28;20553;-73
2021/09/05 05:22:00;;;;;;;3.50;1.65;;;14.00;89.10;;;;;;5025247;28;20088;-67
2021/09/05 05:24:27;;;;;;;4.60;1.25;;;14.00;89.00;;;;;;5026804;28;20021;-72
2021/09/05 05:26:54;;;;;;;3.50;0.65;;;14.00;89.10;;;;;;5028782;28;20124;-67
2021/09/05 05:29:20;;;;;;;2.38;0.50;;;14.00;89.50;;;;;;5030824;28;20079;-68
2021/09/05 05:31:47;;;;;;;0.75;0.50;;;14.00;89.60;;;;;;5029542;28;20117;-67
2021/09/05 05:34:13;;;;;;;1.50;0.50;;;14.00;90.00;;;;;;5026299;28;20027;-71
2021/09/05 05:36:40;;;;;;;1.67;0.50;;;14.00;90.00;;;;;;5021832;28;20026;-70
2021/09/05 05:39:06;;;;;;;24.17;18.77;;;14.00;90.10;;;;;;5027454;28;20026;-65
2021/09/05 05:41:33;;;;;;;99.80;72.80;;;14.00;90.10;;;;;;5030014;28;20095;-67
2021/09/05 05:43:59;;;;;;;16.50;10.35;;;14.10;90.20;;;;;;5025939;28;20017;-68
2021/09/05 05:47:05;;;;;;;3.15;0.98;;;14.00;90.10;;;;;;5023927;28;20041;-68
2021/09/05 05:50:11;;;;;;;0.50;0.22;;;14.10;90.20;;;;;;5024081;28;20026;-75
2021/09/05 05:53:17;;;;;;;0.52;0.20;;;14.10;90.30;;;;;;5024592;28;20112;-71
2021/09/05 05:56:24;;;;;;;1.60;0.30;;;14.20;90.30;;;;;;5024446;28;20335;-68
2021/09/05 05:59:30;;;;;;;1.85;0.30;;;14.20;90.30;;;;;;5013359;28;20041;-71
2021/09/05 06:02:36;;;;;;;0.30;0.30;;;14.20;90.30;;;;;;5021891;28;20045;-68
2021/09/05 06:05:42;;;;;;;0.20;0.20;;;14.20;90.20;;;;;;5024797;28;20091;-70
2021/09/05 06:08:48;;;;;;;0.45;0.15;;;14.20;90.40;;;;;;5025496;28;20021;-75
2021/09/05 06:11:54;;;;;;;0.65;0.30;;;14.20;90.40;;;;;;5025037;28;20043;-75
2021/09/05 06:15:00;;;;;;;7.15;0.60;;;14.20;90.40;;;;;;5023501;28;20371;-75
2021/09/05 06:18:06;;;;;;;0.20;0.00;;;14.30;90.40;;;;;;5024505;28;20111;-67
2021/09/05 06:21:12;;;;;;;0.10;0.10;;;14.30;90.40;;;;;;5028187;28;20032;-68
2021/09/05 06:24:19;;;;;;;0.28;0.20;;;14.30;90.40;;;;;;5024116;28;20388;-76
2021/09/05 06:27:25;;;;;;;0.45;0.10;;;14.40;90.50;;;;;;5025159;28;20021;-71
2021/09/05 06:30:31;;;;;;;100.53;69.28;;;14.40;90.60;;;;;;5026710;28;20022;-69
2021/09/05 06:33:37;;;;;;;5.85;4.43;;;14.50;90.50;;;;;;5026185;28;20026;-70
2021/09/05 06:36:43;;;;;;;0.80;0.45;;;14.50;90.60;;;;;;5025509;28;20025;-75
2021/09/05 06:39:49;;;;;;;0.60;0.20;;;14.50;90.50;;;;;;5023805;28;20120;-69
2021/09/05 06:42:55;;;;;;;0.70;0.13;;;14.60;90.50;;;;;;5025234;28;20025;-70
2021/09/05 06:46:01;;;;;;;0.20;0.10;;;14.60;90.50;;;;;;5023078;28;20032;-69
2021/09/05 06:49:07;;;;;;;1.83;0.70;;;14.70;90.60;;;;;;5028068;28;20018;-71
2021/09/05 06:52:13;;;;;;;0.60;0.60;;;14.70;90.70;;;;;;5024669;28;20619;-72
2021/09/05 06:55:20;;;;;;;1.55;0.82;;;14.90;90.80;;;;;;5024415;28;20045;-70
2021/09/05 06:58:26;;;;;;;1.15;0.85;;;14.90;90.80;;;;;;5016709;28;20067;-70
2021/09/05 07:01:32;;;;;;;3.08;1.17;;;15.00;90.80;;;;;;5024107;28;20028;-70
2021/09/05 07:04:18;;;;;;;;;;;15.00;90.80;;;;;;5024584;28;20025;-70
2021/09/05 07:07:24;;;;;;;2.90;1.80;;;15.00;90.80;;;;;;5024081;28;19905;-68
2021/09/05 07:10:30;;;;;;;3.30;1.27;;;15.10;90.90;;;;;;5025154;28;20063;-71
2021/09/05 07:13:37;;;;;;;6.82;1.27;;;15.10;91.00;;;;;;5024693;28;20105;-75
2021/09/05 07:16:43;;;;;;;5.80;2.00;;;15.10;91.20;;;;;;5024687;28;20009;-75
2021/09/05 07:19:49;;;;;;;7.18;1.05;;;15.20;91.30;;;;;;5029549;28;20060;-73
2021/09/05 07:22:55;;;;;;;4.63;1.17;;;15.30;91.30;;;;;;5027397;28;20028;-73
2021/09/05 07:26:02;;;;;;;5.28;1.77;;;15.40;91.40;;;;;;5024813;28;20100;-77
2021/09/05 07:29:08;;;;;;;6.43;2.00;;;15.50;91.30;;;;;;5027715;28;20598;-77
2021/09/05 07:32:14;;;;;;;99.38;88.60;;;15.50;91.20;;;;;;5028118;28;20092;-70
2021/09/05 07:35:20;;;;;;;12.82;5.88;;;15.50;91.20;;;;;;5028773;28;20067;-72
2021/09/05 07:38:26;;;;;;;14.52;3.78;;;15.60;91.20;;;;;;5030129;28;20067;-67
2021/09/05 07:41:33;;;;;;;10.02;1.83;;;15.70;91.10;;;;;;5030420;28;20397;-72
2021/09/05 07:44:39;;;;;;;51.92;36.42;;;15.80;91.00;;;;;;5031628;28;20030;-69
2021/09/05 07:47:45;;;;;;;29.48;20.60;;;15.80;91.00;;;;;;5026339;28;20072;-71
2021/09/05 07:50:51;;;;;;;18.13;8.80;;;16.00;90.80;;;;;;5027370;28;20013;-70
2021/09/05 07:53:34;;;;;;;8.30;1.85;;;16.00;89.40;;;;;;5028449;28;20025;-74
2021/09/05 07:56:00;;;;;;;3.33;1.10;;;16.00;88.80;;;;;;5031015;28;20036;-73
2021/09/05 07:58:27;;;;;;;4.93;1.45;;;16.00;87.60;;;;;;5023583;28;20108;-81
2021/09/05 08:00:55;;;;;;;8.43;1.65;;;16.00;87.10;;;;;;5029101;28;20025;-75
2021/09/05 08:03:22;;;;;;;4.63;1.02;;;16.00;86.60;;;;;;5026955;28;20415;-73
2021/09/05 08:05:48;;;;;;;6.78;1.83;;;16.10;86.30;;;;;;5032667;28;20361;-75
2021/09/05 08:08:18;;;;;;;5.95;1.90;;;16.20;85.70;;;;;;5028903;28;20175;-78
2021/09/05 08:10:45;;;;;;;4.93;1.35;;;16.30;86.20;;;;;;5030324;28;20025;-81
2021/09/05 08:13:11;;;;;;;6.35;1.35;;;16.40;85.80;;;;;;5030106;28;20018;-82
2021/09/05 08:15:38;;;;;;;9.77;1.65;;;16.40;85.40;;;;;;5028626;28;20057;-76
2021/09/05 08:18:04;;;;;;;6.13;1.40;;;16.50;84.80;;;;;;5032573;28;20412;-79
2021/09/05 08:20:31;;;;;;;5.38;1.60;;;16.50;83.40;;;;;;5027848;28;20030;-80
2021/09/05 08:22:57;;;;;;;7.78;1.63;;;16.60;83.50;;;;;;5027512;28;20453;-80
2021/09/05 08:25:24;;;;;;;5.38;1.23;;;16.70;83.60;;;;;;5027426;28;20079;-76
2021/09/05 08:27:50;;;;;;;10.73;1.58;;;16.80;83.30;;;;;;5031114;28;20016;-77
2021/09/05 08:30:17;;;;;;;12.20;4.00;;;16.90;83.00;;;;;;5027572;28;20025;-78
2021/09/05 08:32:43;;;;;;;3.35;1.80;;;17.00;82.70;;;;;;5027655;28;20027;-76
2021/09/05 08:35:10;;;;;;;11.30;1.95;;;17.00;83.00;;;;;;5029914;28;20059;-81
2021/09/05 08:37:37;;;;;;;7.55;1.30;;;17.10;82.30;;;;;;5027775;28;20254;-78
2021/09/05 08:40:05;;;;;;;3.90;1.02;;;17.10;80.30;;;;;;5028947;28;20350;-80
2021/09/05 08:42:33;;;;;;;8.63;1.10;;;17.10;80.30;;;;;;5027554;28;20060;-79
2021/09/05 08:45:01;;;;;;;9.15;2.20;;;17.10;79.70;;;;;;5030367;28;20486;-78
2021/09/05 08:47:32;;;;;;;6.22;1.05;;;17.10;79.80;;;;;;5028062;28;20017;-75
2021/09/05 08:50:01;;;;;;;6.82;1.27;;;17.20;80.00;;;;;;5027409;28;20105;-77
2021/09/05 08:52:28;;;;;;;4.10;1.55;;;17.30;80.10;;;;;;5030379;28;20021;-77
2021/09/05 08:54:55;;;;;;;6.00;1.27;;;17.30;80.10;;;;;;5028889;28;20417;-78
2021/09/05 08:57:21;;;;;;;5.95;2.05;;;17.30;80.10;;;;;;5044244;28;20087;-79
2021/09/05 08:59:48;;;;;;;3.08;1.48;;;17.30;80.40;;;;;;5028011;28;20139;-77
2021/09/05 09:02:14;;;;;;;5.25;2.10;;;17.30;80.50;;;;;;5028962;28;20021;-80
2021/09/05 09:04:42;;;;;;;9.68;2.00;;;17.20;80.80;;;;;;5027741;28;20111;-82
2021/09/05 09:07:12;;;;;;;3.70;1.10;;;17.20;80.70;;;;;;5030597;28;20017;-82
2021/09/05 09:09:49;;;;;;;3.90;1.30;;;17.20;81.30;;;;;;5029547;28;20013;-82
2021/09/05 09:12:16;;;;;;;5.93;2.20;;;17.20;81.40;;;;;;5029014;28;20040;-80
2021/09/05 09:14:46;;;;;;;8.20;1.73;;;17.20;81.90;;;;;;5042760;28;20033;-79
2021/09/05 09:17:17;;;;;;;11.95;1.85;;;17.30;82.00;;;;;;5025915;28;20025;-82
2021/09/05 09:19:45;;;;;;;5.10;1.35;;;17.30;81.90;;;;;;5028195;28;20096;-80
2021/09/05 09:22:54;;;;;;;12.88;2.17;;;17.30;81.70;;;;;;5029335;28;20088;-84
2021/09/05 09:26:09;;;;;;;6.95;2.00;;;17.30;82.40;;;;;;5027827;28;20545;-72
2021/09/05 09:29:18;;;;;;;5.22;1.70;;;17.30;82.10;;;;;;5030775;28;20040;-74
2021/09/05 09:32:26;;;;;;;7.28;1.65;;;17.30;82.30;;;;;;5021633;28;20034;-78
2021/09/05 09:35:32;;;;;;;10.98;3.92;;;17.40;82.10;;;;;;5026209;28;20021;-72
2021/09/05 09:38:38;;;;;;;8.50;2.33;;;17.60;82.00;;;;;;5025111;28;20037;-76
2021/09/05 09:41:50;;;;;;;5.38;1.42;;;17.70;81.00;;;;;;5025969;28;20060;-75
2021/09/05 09:44:56;;;;;;;5.45;1.40;;;17.70;81.00;;;;;;5030081;28;20123;-76
2021/09/05 09:47:42;;;;;;;5.68;2.15;;;17.80;81.10;;;;;;5023971;28;20041;-73
2021/09/05 09:50:49;;;;;;;22.40;4.13;;;17.70;79.50;;;;;;5044916;28;20041;-70
2021/09/05 09:53:55;;;;;;;23.15;12.98;;;17.30;83.60;;;;;;5030282;28;20029;-74
2021/09/05 09:57:01;;;;;;;14.77;3.90;;;16.90;85.40;;;;;;5027929;28;20136;-72
2021/09/05 10:00:07;;;;;;;11.75;4.32;;;16.40;87.20;;;;;;5029930;28;20041;-71
2021/09/05 10:03:28;;;;;;;10.05;2.78;;;16.20;87.30;;;;;;5028060;28;20045;-73
2021/09/05 10:06:34;;;;;;;13.77;3.28;;;16.00;88.30;;;;;;5029743;28;20078;-75
2021/09/05 10:09:40;;;;;;;18.17;3.60;;;15.80;89.70;;;;;;5026108;28;20552;-69
2021/09/05 10:12:46;;;;;;;13.70;4.55;;;15.60;87.60;;;;;;5025968;28;20522;-74
2021/09/05 10:15:52;;;;;;;16.38;4.60;;;15.50;88.50;;;;;;5029904;28;20339;-70
2021/09/05 10:18:58;;;;;;;18.77;2.67;;;15.50;90.00;;;;;;5028048;28;20404;-70
2021/09/05 10:22:05;;;;;;;9.25;2.67;;;15.50;90.20;;;;;;5024267;28;20112;-69
2021/09/05 10:25:23;;;;;;;14.15;3.95;;;15.50;88.80;;;;;;5031787;28;20029;-75
2021/09/05 10:28:29;;;;;;;19.08;3.72;;;15.60;89.30;;;;;;5022590;28;20029;-71
2021/09/05 10:31:54;;;;;;;12.45;2.60;;;15.60;88.10;;;;;;5029393;28;20091;-72
2021/09/05 10:35:09;;;;;;;9.18;2.92;;;15.70;85.80;;;;;;5008901;28;20021;-80
2021/09/05 10:38:25;;;;;;;116.53;90.63;;;15.70;83.10;;;;;;5021142;28;20075;-71
2021/09/05 10:41:12;;;;;;;23.02;13.18;;;15.80;82.80;;;;;;5026681;28;20538;-76
2021/09/05 10:44:08;;;;;;;9.77;3.38;;;15.90;81.80;;;;;;5024681;28;20021;-76
2021/09/05 10:46:44;;;;;;;8.57;1.88;;;16.00;80.50;;;;;;5027129;28;20120;-72
2021/09/05 10:49:11;;;;;;;8.48;2.58;;;16.00;79.50;;;;;;5026504;28;20108;-72
2021/09/05 10:51:43;;;;;;;6.97;2.45;;;16.10;79.60;;;;;;5024217;28;20014;-69
2021/09/05 10:54:21;;;;;;;10.23;2.72;;;16.10;79.70;;;;;;5032713;28;20116;-74
2021/09/05 10:56:48;;;;;;;16.33;3.35;;;16.30;80.30;;;;;;5044268;28;20057;-78
2021/09/05 10:59:19;;;;;;;11.27;4.43;;;16.40;80.20;;;;;;5030617;28;20042;-76
2021/09/05 11:01:48;;;;;;;15.43;4.68;;;16.50;79.10;;;;;;5030021;28;20049;-73
2021/09/05 11:04:15;;;;;;;11.02;2.80;;;16.50;76.60;;;;;;5030611;28;20024;-69
2021/09/05 11:06:52;;;;;;;12.88;2.72;;;16.60;75.70;;;;;;5033465;28;20020;-78
2021/09/05 11:09:19;;;;;;;12.88;2.60;;;16.70;75.30;;;;;;5030584;28;20018;-69
2021/09/05 11:12:08;;;;;;;17.13;3.15;;;16.80;75.30;;;;;;5030368;28;20075;-70
2021/09/05 11:14:40;;;;;;;5.93;2.15;;;16.80;75.90;;;;;;5030104;28;20029;-73
2021/09/05 11:17:10;;;;;;;12.65;3.22;;;16.90;76.50;;;;;;5032578;28;20025;-72
2021/09/05 11:20:00;;;;;;;16.55;5.63;;;17.00;77.20;;;;;;5031101;28;20041;-74
2021/09/05 11:22:29;;;;;;;17.73;6.40;;;17.00;78.00;;;;;;5028300;28;20096;-74
2021/09/05 11:25:24;;;;;;;12.25;3.80;;;17.00;77.20;;;;;;5027572;28;20476;-72
2021/09/05 11:28:06;;;;;;;9.43;2.53;;;17.00;77.60;;;;;;5025586;28;20030;-79
2021/09/05 11:30:43;;;;;;;14.98;3.60;;;17.10;77.80;;;;;;5042060;28;20416;-78
2021/09/05 11:33:13;;;;;;;20.80;3.88;;;17.10;78.00;;;;;;5032529;28;20136;-67
2021/09/05 11:35:40;;;;;;;9.85;3.17;;;17.20;78.30;;;;;;5026041;28;20039;-68
2021/09/05 11:38:07;;;;;;;15.80;3.92;;;17.30;79.00;;;;;;5028274;28;20119;-73
2021/09/05 11:40:46;;;;;;;37.88;11.98;;;17.50;78.80;;;;;;5029867;28;20032;-78
2021/09/05 11:43:13;;;;;;;18.65;4.43;;;17.70;78.10;;;;;;5029556;28;20021;-83
2021/09/05 11:45:41;;;;;;;15.18;5.20;;;17.80;77.20;;;;;;5028104;28;20037;-72
2021/09/05 11:48:08;;;;;;;17.77;3.72;;;17.80;77.00;;;;;;5027799;28;20474;-72
2021/09/05 11:50:37;;;;;;;18.73;3.90;;;17.90;77.10;;;;;;5026041;28;20431;-81
2021/09/05 11:53:05;;;;;;;15.80;3.67;;;17.70;76.00;;;;;;5042518;28;20033;-76
2021/09/05 11:55:32;;;;;;;12.85;3.80;;;17.50;80.10;;;;;;5026933;28;20112;-77
2021/09/05 11:58:05;;;;;;;17.42;4.32;;;17.30;80.20;;;;;;5028377;28;20025;-75
2021/09/05 12:00:36;;;;;;;20.33;3.60;;;17.00;81.00;;;;;;5026837;28;20076;-79
2021/09/05 12:03:45;;;;;;;17.45;4.75;;;16.80;82.20;;;;;;5025864;28;20040;-71
2021/09/05 12:06:12;;;;;;;14.68;4.43;;;16.60;83.00;;;;;;5023668;28;20116;-77
2021/09/05 12:08:40;;;;;;;19.88;4.88;;;16.50;84.40;;;;;;5024821;28;20516;-80
2021/09/05 12:11:07;;;;;;;16.75;4.10;;;16.50;84.90;;;;;;5027101;28;20029;-75
2021/09/05 12:13:48;;;;;;;15.23;3.72;;;16.40;84.30;;;;;;5023145;28;20022;-77
2021/09/05 12:16:27;;;;;;;13.73;3.47;;;16.40;83.20;;;;;;5024237;28;20090;-75
2021/09/05 12:19:09;;;;;;;14.20;5.75;;;16.40;82.70;;;;;;5027600;28;20508;-73
2021/09/05 12:21:40;;;;;;;15.45;3.38;;;16.60;81.60;;;;;;5024241;28;20408;-75
2021/09/05 12:24:20;;;;;;;14.05;3.88;;;16.70;79.50;;;;;;5027602;28;20063;-76
2021/09/05 12:26:47;;;;;;;15.35;3.30;;;16.80;77.60;;;;;;5025972;28;20017;-75
2021/09/05 12:29:24;;;;;;;9.88;2.53;;;17.00;77.00;;;;;;5025498;28;20025;-71
2021/09/05 12:31:51;;;;;;;9.60;2.28;;;17.10;76.50;;;;;;5024725;28;20079;-78
2021/09/05 12:34:40;;;;;;;11.43;2.88;;;17.30;75.40;;;;;;5027048;28;20029;-75
2021/09/05 12:37:20;;;;;;;13.57;3.38;;;17.40;75.80;;;;;;5024598;28;20018;-77
2021/09/05 12:39:49;;;;;;;7.82;2.30;;;17.40;76.20;;;;;;5024830;28;20457;-75
2021/09/05 12:42:17;;;;;;;13.00;2.83;;;17.30;75.80;;;;;;5025698;28;20018;-73
2021/09/05 12:44:46;;;;;;;12.43;2.28;;;17.20;76.20;;;;;;5028500;28;20071;-73
2021/09/05 12:47:27;;;;;;;15.65;3.35;;;17.10;76.70;;;;;;5043706;28;20396;-79
2021/09/05 12:49:56;;;;;;;6.85;4.40;;;17.00;77.30;;;;;;5026854;28;20147;-71
2021/09/05 12:52:26;;;;;;;12.93;4.88;;;17.00;76.20;;;;;;5023734;28;20022;-76
2021/09/05 12:54:53;;;;;;;6.88;2.42;;;16.90;75.70;;;;;;5025933;28;20408;-71
2021/09/05 12:57:19;;;;;;;9.88;2.35;;;16.70;75.80;;;;;;5025708;28;20064;-70
2021/09/05 12:59:46;;;;;;;11.40;2.13;;;16.60;75.90;;;;;;5026547;28;20032;-76
2021/09/05 13:02:12;;;;;;;5.72;2.35;;;16.60;76.30;;;;;;5024060;28;20026;-76
2021/09/05 13:04:39;;;;;;;11.43;2.90;;;16.50;76.10;;;;;;5026791;28;20082;-75
2021/09/05 13:07:05;;;;;;;10.27;2.83;;;16.50;76.60;;;;;;5024438;28;20030;-79
2021/09/05 13:09:32;;;;;;;9.50;3.67;;;16.50;75.80;;;;;;5027146;28;20022;-79
2021/09/05 13:11:58;;;;;;;10.20;4.30;;;16.40;74.60;;;;;;5022873;28;20038;-79
2021/09/05 13:14:25;;;;;;;14.88;6.25;;;16.40;74.70;;;;;;5022752;28;20014;-78
2021/09/05 13:16:51;;;;;;;11.23;3.88;;;16.20;75.00;;;;;;5026056;28;20111;-76
2021/09/05 13:19:18;;;;;;;11.88;3.55;;;16.10;75.90;;;;;;5020718;28;20068;-75
2021/09/05 13:21:45;;;;;;;14.05;3.85;;;16.20;75.90;;;;;;5025376;28;20022;-78
2021/09/05 13:24:11;;;;;;;11.30;3.30;;;16.20;76.80;;;;;;5026393;28;20037;-75
2021/09/05 13:26:38;;;;;;;10.65;6.70;;;16.10;77.70;;;;;;5025924;28;20646;-75
2021/09/05 13:29:04;;;;;;;10.63;4.05;;;16.10;79.20;;;;;;5024385;28;20105;-76
2021/09/05 13:31:33;;;;;;;10.88;3.80;;;16.00;78.60;;;;;;5023719;28;20029;-71